Time;durP1;ratioP1;P1;durP2;ratioP2;P2;SDS_P1;SDS_P2;PMS_P1;PMS_P2;Temp;Humidity;BMP_temperature;BMP_pressure;BME280_temperature;BME280_humidity;BME280_pressure;Samples;Min_cycle;Max_cycle;Signal;HPM_P1;HPM_P2
2022/01/11 00:02:01;;;;;;;24.38;12.95;;;1.90;99.90;;;;;;4972169;28;20202;-71
2022/01/11 00:04:47;;;;;;;21.90;12.73;;;2.00;99.90;;;;;;4968693;28;20607;-71
2022/01/11 00:07:35;;;;;;;29.10;11.75;;;2.10;99.90;;;;;;4944766;29;20208;-71
2022/01/11 00:10:27;;;;;;;20.75;13.10;;;2.20;99.90;;;;;;4950094;29;20208;-71
2022/01/11 00:13:12;;;;;;;21.40;11.68;;;2.10;99.90;;;;;;4952345;28;20231;-71
2022/01/11 00:15:58;;;;;;;25.58;13.20;;;2.10;99.90;;;;;;4956681;28;20227;-71
2022/01/11 00:18:46;;;;;;;18.63;13.20;;;2.00;99.90;;;;;;4949310;29;20930;-71
2022/01/11 00:21:31;;;;;;;19.98;12.77;;;2.10;99.90;;;;;;4936686;29;20196;-71
2022/01/11 00:24:30;;;;;;;18.65;12.15;;;2.10;99.90;;;;;;4945309;29;20200;-71
2022/01/11 00:27:18;;;;;;;20.98;14.25;;;2.10;99.90;;;;;;4945175;28;20968;-71
2022/01/11 00:30:07;;;;;;;28.10;13.73;;;2.10;99.90;;;;;;4950187;29;20208;-71
2022/01/11 00:32:56;;;;;;;20.70;13.98;;;2.00;99.90;;;;;;4948906;28;20203;-72
2022/01/11 00:35:45;;;;;;;26.27;14.13;;;2.00;99.90;;;;;;4957209;28;20629;-72
2022/01/11 00:38:35;;;;;;;28.92;15.98;;;2.00;99.90;;;;;;4949255;29;20208;-71
2022/01/11 00:41:21;;;;;;;29.48;15.50;;;1.90;99.90;;;;;;4944940;29;20228;-72
2022/01/11 00:44:07;;;;;;;26.08;15.25;;;2.10;99.90;;;;;;4948190;29;20205;-71
2022/01/11 00:46:53;;;;;;;26.77;15.18;;;2.20;99.90;;;;;;4947105;28;20220;-71
2022/01/11 00:49:40;;;;;;;26.63;14.77;;;2.00;99.90;;;;;;4954072;29;20677;-71
2022/01/11 00:52:28;;;;;;;24.80;16.48;;;1.90;99.90;;;;;;4954049;29;20204;-71
2022/01/11 00:55:15;;;;;;;29.42;16.20;;;2.00;99.90;;;;;;4953566;28;20231;-72
2022/01/11 00:58:02;;;;;;;22.67;15.15;;;2.30;99.90;;;;;;4946043;28;20263;-71
2022/01/11 01:00:48;;;;;;;26.20;15.50;;;2.30;99.90;;;;;;4953562;29;20224;-71
2022/01/11 01:03:34;;;;;;;24.50;16.70;;;2.30;99.90;;;;;;4954133;29;20737;-72
2022/01/11 01:06:19;;;;;;;23.83;15.15;;;2.50;99.90;;;;;;4947307;28;20237;-71
2022/01/11 01:09:06;;;;;;;25.50;15.60;;;2.40;99.90;;;;;;4934387;29;20209;-72
2022/01/11 01:11:52;;;;;;;27.38;15.18;;;2.40;99.90;;;;;;4946976;28;20264;-72
2022/01/11 01:14:38;;;;;;;27.63;17.35;;;2.50;99.90;;;;;;4953722;28;20208;-72
2022/01/11 01:17:23;;;;;;;30.10;15.32;;;2.50;99.90;;;;;;4946483;28;20209;-72
2022/01/11 01:20:10;;;;;;;19.05;12.93;;;2.60;99.90;;;;;;4951955;29;20769;-71
2022/01/11 01:22:56;;;;;;;29.63;14.30;;;2.70;99.90;;;;;;4951443;28;20693;-71
2022/01/11 01:25:45;;;;;;;22.60;13.40;;;2.70;99.90;;;;;;4948423;28;20232;-71
2022/01/11 01:28:32;;;;;;;28.30;13.30;;;2.70;99.90;;;;;;4951378;29;20678;-72
2022/01/11 01:31:18;;;;;;;24.48;14.45;;;2.50;99.90;;;;;;4949826;29;20236;-71
2022/01/11 01:34:03;;;;;;;22.27;13.25;;;2.60;99.90;;;;;;4950687;28;20223;-72
2022/01/11 01:36:49;;;;;;;26.85;14.02;;;2.50;99.90;;;;;;4945393;28;20231;-71
2022/01/11 01:39:36;;;;;;;22.55;14.25;;;2.50;99.90;;;;;;4952148;29;20203;-71
2022/01/11 01:42:27;;;;;;;26.13;14.90;;;2.50;99.90;;;;;;4950579;29;20208;-71
2022/01/11 01:45:14;;;;;;;22.10;13.60;;;2.50;99.90;;;;;;4947471;29;20228;-71
2022/01/11 01:47:59;;;;;;;27.05;16.17;;;2.40;99.90;;;;;;4946977;29;20207;-72
2022/01/11 01:50:47;;;;;;;24.55;15.70;;;2.30;99.90;;;;;;4950881;29;20199;-71
2022/01/11 01:53:34;;;;;;;22.65;14.35;;;2.30;99.90;;;;;;4951849;29;20783;-71
2022/01/11 01:56:22;;;;;;;23.27;15.93;;;2.40;99.90;;;;;;4951773;28;20330;-71
2022/01/11 01:59:09;;;;;;;27.60;14.57;;;2.50;99.90;;;;;;4951779;28;20228;-71
2022/01/11 02:01:55;;;;;;;22.35;13.63;;;2.50;99.90;;;;;;4951736;29;20228;-71
2022/01/11 02:04:41;;;;;;;35.50;15.45;;;2.60;99.90;;;;;;4948836;28;20845;-72
2022/01/11 02:07:27;;;;;;;28.40;14.95;;;2.60;99.90;;;;;;4951187;29;20208;-72
2022/01/11 02:10:13;;;;;;;21.15;12.40;;;2.60;99.90;;;;;;4950555;28;20216;-71
2022/01/11 02:13:01;;;;;;;25.13;13.75;;;2.60;99.90;;;;;;4948465;29;20700;-72
2022/01/11 02:15:49;;;;;;;27.33;14.93;;;2.60;99.90;;;;;;4944792;29;20574;-71
2022/01/11 02:18:35;;;;;;;20.27;14.35;;;2.40;99.90;;;;;;4944146;28;20212;-71
2022/01/11 02:21:23;;;;;;;26.83;13.75;;;2.50;99.90;;;;;;4952941;29;20239;-71
2022/01/11 02:24:09;;;;;;;20.65;14.63;;;2.70;99.90;;;;;;4950834;29;20333;-71
2022/01/11 02:26:54;;;;;;;28.08;15.23;;;2.70;99.90;;;;;;4953742;28;20229;-71
2022/01/11 02:29:40;;;;;;;22.67;13.88;;;2.70;99.90;;;;;;4945627;29;20204;-71
2022/01/11 02:32:26;;;;;;;27.63;13.65;;;2.70;99.90;;;;;;4946993;29;20682;-71
2022/01/11 02:35:12;;;;;;;20.58;13.00;;;2.60;99.90;;;;;;4951836;28;20352;-72
2022/01/11 02:37:58;;;;;;;30.17;14.93;;;2.50;99.90;;;;;;4953152;28;20224;-71
2022/01/11 02:40:44;;;;;;;25.75;14.48;;;2.40;99.90;;;;;;4953884;29;20321;-72
2022/01/11 02:43:30;;;;;;;28.60;13.90;;;2.50;99.90;;;;;;4946919;28;20587;-71
2022/01/11 02:46:19;;;;;;;30.42;14.63;;;2.50;99.90;;;;;;4951903;28;20223;-71
2022/01/11 02:49:04;;;;;;;21.75;13.10;;;2.40;99.90;;;;;;4951965;29;20208;-71
2022/01/11 02:51:50;;;;;;;30.38;14.65;;;2.40;99.90;;;;;;4952421;29;20298;-71
2022/01/11 02:54:37;;;;;;;22.23;14.48;;;2.40;99.90;;;;;;4949108;29;20287;-71
2022/01/11 02:57:23;;;;;;;25.83;15.05;;;2.60;99.90;;;;;;4953608;28;20421;-72
2022/01/11 03:00:11;;;;;;;29.42;15.40;;;2.80;99.90;;;;;;4954606;29;20228;-71
2022/01/11 03:02:57;;;;;;;27.02;16.42;;;2.80;99.90;;;;;;4951121;29;20208;-72
2022/01/11 03:05:46;;;;;;;25.88;15.68;;;2.90;99.90;;;;;;4951293;28;20284;-72
2022/01/11 03:08:34;;;;;;;27.27;15.07;;;2.90;99.90;;;;;;4953910;28;20217;-71
2022/01/11 03:11:24;;;;;;;25.02;14.55;;;2.90;99.90;;;;;;4953938;29;20264;-72
2022/01/11 03:14:10;;;;;;;25.80;14.18;;;2.90;99.90;;;;;;4948504;28;20327;-71
2022/01/11 03:16:56;;;;;;;22.10;14.77;;;2.90;99.90;;;;;;4953514;28;20248;-71
2022/01/11 03:19:41;;;;;;;27.13;15.93;;;2.80;99.90;;;;;;4952393;29;20626;-71
2022/01/11 03:22:27;;;;;;;26.83;14.98;;;2.90;99.90;;;;;;4953296;28;20205;-71
2022/01/11 03:25:13;;;;;;;30.90;14.07;;;2.90;99.90;;;;;;4950936;28;20223;-71
2022/01/11 03:28:01;;;;;;;22.70;14.80;;;3.00;99.90;;;;;;4959879;28;20212;-70
2022/01/11 03:30:47;;;;;;;33.45;16.58;;;3.00;99.90;;;;;;4954741;29;20280;-72
2022/01/11 03:33:33;;;;;;;19.05;13.85;;;2.90;99.90;;;;;;4950038;28;20228;-72
2022/01/11 03:36:19;;;;;;;24.27;13.20;;;2.90;99.90;;;;;;4952159;28;20590;-72
2022/01/11 03:39:04;;;;;;;25.52;14.90;;;2.90;99.90;;;;;;4951804;29;20208;-71
2022/01/11 03:41:50;;;;;;;25.05;14.45;;;3.00;99.90;;;;;;4950745;28;20271;-72
2022/01/11 03:44:37;;;;;;;22.17;14.02;;;2.90;99.90;;;;;;4950572;29;20736;-71
2022/01/11 03:47:22;;;;;;;25.55;13.90;;;2.90;99.90;;;;;;4951860;28;20511;-72
2022/01/11 03:50:11;;;;;;;22.63;13.25;;;2.90;99.90;;;;;;4953342;29;20349;-71
2022/01/11 03:53:05;;;;;;;22.55;13.38;;;3.00;99.90;;;;;;4951799;29;20209;-71
2022/01/11 03:56:11;;;;;;;18.35;12.20;;;2.90;99.90;;;;;;4952607;28;20232;-71
2022/01/11 03:58:57;;;;;;;27.88;14.20;;;3.00;99.90;;;;;;4948152;29;20208;-71
2022/01/11 04:01:44;;;;;;;25.42;14.45;;;2.80;99.90;;;;;;4946655;29;20585;-71
2022/01/11 04:04:30;;;;;;;21.55;13.43;;;2.90;99.90;;;;;;4951878;29;20200;-71
2022/01/11 04:07:15;;;;;;;21.27;13.32;;;2.90;99.90;;;;;;4950171;28;20200;-71
2022/01/11 04:10:02;;;;;;;26.08;13.05;;;2.90;99.90;;;;;;4954111;29;20208;-71
2022/01/11 04:12:52;;;;;;;25.63;14.65;;;2.90;99.90;;;;;;4948958;28;20289;-72
2022/01/11 04:15:38;;;;;;;20.67;13.80;;;2.80;99.90;;;;;;4953685;28;20224;-72
2022/01/11 04:18:26;;;;;;;24.08;13.35;;;2.90;99.90;;;;;;4952220;29;20753;-71
2022/01/11 04:21:12;;;;;;;21.13;14.05;;;3.00;99.90;;;;;;4952880;28;20220;-71
2022/01/11 04:23:57;;;;;;;25.08;13.30;;;2.90;99.90;;;;;;4949243;29;20685;-71
2022/01/11 04:26:43;;;;;;;23.80;14.48;;;3.00;99.90;;;;;;4959378;28;20231;-71
2022/01/11 04:29:29;;;;;;;31.38;14.05;;;3.00;99.90;;;;;;4946458;29;20208;-71
2022/01/11 04:32:15;;;;;;;28.58;13.70;;;3.00;99.90;;;;;;4950310;29;20297;-71
2022/01/11 04:35:02;;;;;;;21.13;13.43;;;3.00;99.90;;;;;;4948370;28;20288;-72
2022/01/11 04:37:48;;;;;;;21.45;12.60;;;3.10;99.90;;;;;;4951610;28;20677;-71
2022/01/11 04:40:33;;;;;;;20.50;12.65;;;3.10;99.90;;;;;;4949182;29;20670;-71
2022/01/11 04:43:19;;;;;;;18.58;13.02;;;3.10;99.90;;;;;;4948229;29;20576;-71
2022/01/11 04:46:04;;;;;;;26.42;12.25;;;3.10;99.90;;;;;;4951596;28;20575;-71
2022/01/11 04:48:50;;;;;;;22.13;13.38;;;3.00;99.90;;;;;;4949537;29;20619;-71
2022/01/11 04:51:38;;;;;;;22.77;12.43;;;3.10;99.90;;;;;;4951498;28;20308;-72
2022/01/11 04:54:23;;;;;;;20.92;12.73;;;3.20;99.90;;;;;;4951478;29;20224;-72
2022/01/11 04:57:09;;;;;;;20.05;13.40;;;3.30;99.90;;;;;;4954091;28;20713;-71
2022/01/11 04:59:55;;;;;;;18.45;12.68;;;3.20;99.90;;;;;;4948786;28;20206;-71
2022/01/11 05:02:40;;;;;;;23.88;12.38;;;3.10;99.90;;;;;;4947764;28;20235;-71
2022/01/11 05:05:28;;;;;;;22.25;12.80;;;3.00;99.90;;;;;;4950050;28;20224;-72
2022/01/11 05:08:15;;;;;;;22.65;13.00;;;3.00;99.90;;;;;;4953312;29;20575;-71
2022/01/11 05:11:01;;;;;;;26.55;13.38;;;3.10;99.90;;;;;;4951538;28;20252;-72
2022/01/11 05:13:46;;;;;;;21.25;14.00;;;3.10;99.90;;;;;;4948819;28;20340;-71
2022/01/11 05:16:32;;;;;;;25.52;15.32;;;3.00;99.90;;;;;;4950571;28;20355;-71
2022/01/11 05:19:17;;;;;;;26.98;16.13;;;2.90;99.90;;;;;;4953199;29;20341;-71
2022/01/11 05:22:03;;;;;;;28.90;15.48;;;2.90;99.90;;;;;;4947096;29;20614;-71
2022/01/11 05:24:50;;;;;;;25.80;16.67;;;2.90;99.90;;;;;;4950599;28;20204;-72
2022/01/11 05:27:36;;;;;;;19.58;14.57;;;2.70;99.90;;;;;;4959097;28;20208;-72
2022/01/11 05:30:21;;;;;;;24.80;15.57;;;2.70;99.90;;;;;;4951608;29;20582;-72
2022/01/11 05:33:07;;;;;;;28.00;14.80;;;2.80;99.90;;;;;;4945841;29;20223;-72
2022/01/11 05:35:54;;;;;;;22.13;13.80;;;2.90;99.90;;;;;;4952415;28;20674;-71
2022/01/11 05:38:40;;;;;;;25.45;14.05;;;2.90;99.90;;;;;;4949820;29;20200;-72
2022/01/11 05:41:27;;;;;;;20.27;13.50;;;2.80;99.90;;;;;;4948848;29;20323;-71
2022/01/11 05:44:13;;;;;;;23.35;13.85;;;2.60;99.90;;;;;;4951135;29;20260;-72
2022/01/11 05:46:58;;;;;;;26.48;14.02;;;2.70;99.90;;;;;;4951142;28;20224;-71
2022/01/11 05:49:44;;;;;;;30.83;15.13;;;2.70;99.90;;;;;;4952471;29;20212;-72
2022/01/11 05:52:29;;;;;;;22.65;13.07;;;2.80;99.90;;;;;;4945181;29;20328;-72
2022/01/11 05:57:54;;;;;;;23.02;12.90;;;2.90;99.90;;;;;;4926086;29;20214;-72
2022/01/11 06:00:40;;;;;;;21.15;12.40;;;2.80;99.90;;;;;;4926110;29;20330;-71
2022/01/11 06:03:26;;;;;;;19.33;13.70;;;2.90;99.90;;;;;;4924779;29;20326;-71
2022/01/11 06:06:11;;;;;;;19.17;14.55;;;2.90;99.90;;;;;;4924805;29;21967;-71
2022/01/11 06:08:59;;;;;;;22.33;13.65;;;2.90;99.90;;;;;;4912775;29;20242;-71
2022/01/11 06:11:45;;;;;;;20.92;14.38;;;3.00;99.90;;;;;;4912523;29;20225;-70
2022/01/11 06:14:32;;;;;;;22.80;12.32;;;3.00;99.90;;;;;;4918683;29;20212;-71
2022/01/11 06:17:17;;;;;;;20.77;12.70;;;3.00;99.90;;;;;;4916436;29;20229;-72
2022/01/11 06:20:03;;;;;;;23.63;13.95;;;3.00;99.90;;;;;;4917278;29;20213;-71
2022/01/11 06:22:49;;;;;;;22.55;13.82;;;2.90;99.90;;;;;;4915772;29;20225;-71
2022/01/11 06:25:35;;;;;;;19.92;12.55;;;3.00;99.90;;;;;;4918583;29;20776;-71
2022/01/11 06:28:21;;;;;;;18.77;13.30;;;3.00;99.90;;;;;;4914558;29;20315;-70
2022/01/11 06:31:08;;;;;;;21.52;14.13;;;3.00;99.90;;;;;;4914982;29;20350;-71
2022/01/11 06:33:53;;;;;;;18.40;12.48;;;3.10;99.90;;;;;;4916749;29;20338;-71
2022/01/11 06:36:39;;;;;;;17.55;12.13;;;3.10;99.90;;;;;;4917562;29;20233;-71
2022/01/11 06:39:24;;;;;;;31.75;12.43;;;3.00;99.90;;;;;;4912536;29;20676;-72
2022/01/11 06:42:10;;;;;;;17.98;12.50;;;3.00;99.90;;;;;;4911995;29;20233;-71
2022/01/11 06:44:56;;;;;;;21.20;12.45;;;2.90;99.90;;;;;;4914166;29;20298;-70
2022/01/11 06:47:43;;;;;;;18.77;12.73;;;3.00;99.90;;;;;;4912632;29;20620;-71
2022/01/11 06:50:29;;;;;;;21.55;12.60;;;3.10;99.90;;;;;;4917388;29;20342;-71
2022/01/11 06:53:15;;;;;;;21.33;12.55;;;3.00;99.90;;;;;;4910743;29;20262;-71
2022/01/11 06:56:00;;;;;;;21.77;13.48;;;3.10;99.90;;;;;;4915797;29;20237;-71
2022/01/11 06:58:46;;;;;;;19.20;13.05;;;2.90;99.90;;;;;;4918581;29;20277;-71
2022/01/11 07:01:33;;;;;;;25.90;13.25;;;3.00;99.90;;;;;;4911227;29;20221;-71
2022/01/11 07:04:20;;;;;;;20.70;12.30;;;3.00;99.90;;;;;;4915710;29;20210;-71
2022/01/11 07:07:07;;;;;;;23.17;12.48;;;3.00;99.90;;;;;;4915436;29;20226;-71
2022/01/11 07:09:53;;;;;;;21.90;13.07;;;3.10;99.90;;;;;;4915394;29;20789;-71
2022/01/11 07:12:38;;;;;;;20.60;12.02;;;3.00;99.90;;;;;;4913423;29;20210;-71
2022/01/11 07:15:24;;;;;;;18.63;12.88;;;3.10;99.90;;;;;;4913414;29;20571;-71
2022/01/11 07:18:10;;;;;;;17.08;12.02;;;3.10;99.90;;;;;;4914471;29;20197;-71
2022/01/11 07:20:57;;;;;;;27.83;12.40;;;3.10;99.90;;;;;;4911840;29;20305;-71
2022/01/11 07:23:43;;;;;;;17.23;12.45;;;3.20;99.90;;;;;;4914399;29;20209;-71
2022/01/11 07:26:28;;;;;;;25.00;13.20;;;3.00;99.90;;;;;;4919913;29;20280;-71
2022/01/11 07:29:14;;;;;;;22.83;14.18;;;3.00;99.90;;;;;;4914557;29;20201;-71
2022/01/11 07:32:00;;;;;;;18.20;12.35;;;3.00;99.90;;;;;;4912227;29;20220;-72
2022/01/11 07:34:45;;;;;;;18.30;11.93;;;3.00;99.90;;;;;;4913033;29;20209;-71
2022/01/11 07:37:32;;;;;;;20.52;13.18;;;2.90;99.90;;;;;;4910946;29;20225;-71
2022/01/11 07:40:18;;;;;;;16.02;11.80;;;2.90;99.90;;;;;;4911091;29;20218;-71
2022/01/11 07:43:04;;;;;;;28.67;15.95;;;2.90;99.90;;;;;;4911728;29;20217;-71
2022/01/11 07:45:50;;;;;;;22.27;14.20;;;2.80;99.90;;;;;;4915330;29;20323;-71
2022/01/11 07:48:35;;;;;;;20.88;12.70;;;2.90;99.90;;;;;;4912963;29;20206;-70
2022/01/11 07:51:21;;;;;;;23.50;13.40;;;2.90;99.90;;;;;;4905828;29;20322;-71
2022/01/11 07:54:07;;;;;;;23.98;12.82;;;3.00;99.90;;;;;;4914105;29;20211;-71
2022/01/11 07:56:53;;;;;;;16.23;10.93;;;3.10;99.90;;;;;;4875507;29;1184281;-71
2022/01/11 07:59:39;;;;;;;24.95;11.32;;;3.20;99.90;;;;;;4914869;29;20209;-71
2022/01/11 08:02:24;;;;;;;18.45;10.98;;;3.20;99.90;;;;;;4914512;29;20229;-72
2022/01/11 08:05:10;;;;;;;18.58;10.95;;;3.30;99.90;;;;;;4916641;29;20205;-71
2022/01/11 08:07:56;;;;;;;16.75;10.57;;;3.40;99.90;;;;;;4916558;29;20205;-71
2022/01/11 08:10:43;;;;;;;23.52;10.70;;;3.30;99.90;;;;;;4909297;29;20214;-71
2022/01/11 08:13:29;;;;;;;19.45;11.70;;;3.30;99.90;;;;;;4897934;29;20198;-71
2022/01/11 08:16:15;;;;;;;53.42;22.92;;;3.30;99.90;;;;;;4904654;29;20236;-71
2022/01/11 08:19:01;;;;;;;30.85;15.07;;;3.20;99.90;;;;;;4913684;29;20210;-71
2022/01/11 08:21:47;;;;;;;23.02;12.13;;;3.30;99.90;;;;;;4907600;29;20658;-71
2022/01/11 08:24:33;;;;;;;17.65;10.07;;;3.40;99.90;;;;;;4915784;29;20573;-71
2022/01/11 08:27:22;;;;;;;14.45;10.00;;;3.50;99.90;;;;;;4921755;29;20780;-71
2022/01/11 08:30:09;;;;;;;33.35;17.52;;;3.50;99.90;;;;;;4912052;29;20357;-71
2022/01/11 08:32:54;;;;;;;44.38;20.55;;;3.50;99.90;;;;;;4915176;29;20382;-72
2022/01/11 08:35:41;;;;;;;126.15;40.15;;;3.50;99.90;;;;;;4911937;29;20225;-71
2022/01/11 08:38:26;;;;;;;44.67;19.73;;;3.50;99.90;;;;;;4909525;29;20683;-72
2022/01/11 08:41:12;;;;;;;67.10;25.95;;;3.40;99.90;;;;;;4906923;29;20230;-71
2022/01/11 08:43:59;;;;;;;99.60;33.72;;;3.40;99.90;;;;;;4912160;29;20342;-71
2022/01/11 08:46:44;;;;;;;51.58;25.77;;;3.40;99.90;;;;;;4914882;29;20762;-71
2022/01/11 08:49:30;;;;;;;50.63;19.23;;;3.50;99.90;;;;;;4908818;29;20620;-71
2022/01/11 08:52:16;;;;;;;42.42;20.88;;;3.60;99.90;;;;;;4912630;29;20206;-72
2022/01/11 08:55:01;;;;;;;47.42;20.90;;;3.80;99.90;;;;;;4913579;29;20201;-70
2022/01/11 08:57:47;;;;;;;35.45;17.90;;;3.80;99.90;;;;;;4909093;29;20281;-71
2022/01/11 09:00:34;;;;;;;39.67;20.40;;;3.80;99.90;;;;;;4907145;29;20601;-71
2022/01/11 09:03:23;;;;;;;41.03;19.95;;;3.80;99.90;;;;;;4906920;29;20353;-71
2022/01/11 09:06:09;;;;;;;44.45;19.60;;;3.90;99.90;;;;;;4912958;29;20248;-71
2022/01/11 09:08:54;;;;;;;32.70;15.65;;;4.00;99.90;;;;;;4911741;29;20218;-72
2022/01/11 09:11:41;;;;;;;29.10;15.05;;;4.00;99.90;;;;;;4903996;29;20282;-71
2022/01/11 09:14:27;;;;;;;23.85;15.40;;;4.10;99.90;;;;;;4913457;29;20213;-71
2022/01/11 09:17:14;;;;;;;25.50;17.00;;;4.10;99.90;;;;;;4914022;29;20233;-71
2022/01/11 09:20:00;;;;;;;34.40;18.85;;;4.20;99.90;;;;;;4913232;29;20213;-70
2022/01/11 09:22:46;;;;;;;23.08;14.75;;;4.30;99.90;;;;;;4912763;29;20322;-70
2022/01/11 09:25:31;;;;;;;26.92;14.13;;;4.30;99.90;;;;;;4913891;29;20209;-71
2022/01/11 09:28:17;;;;;;;26.75;14.25;;;4.40;99.90;;;;;;4911730;29;20479;-71
2022/01/11 09:31:03;;;;;;;26.88;15.55;;;4.40;99.90;;;;;;4913785;29;20197;-72
2022/01/11 09:33:51;;;;;;;28.27;16.80;;;4.50;99.90;;;;;;4914197;29;20229;-71
2022/01/11 09:36:37;;;;;;;32.08;16.70;;;4.60;99.90;;;;;;4913481;29;20229;-70
2022/01/11 09:39:25;;;;;;;28.73;15.85;;;4.60;99.90;;;;;;4906237;29;20568;-70
2022/01/11 09:42:11;;;;;;;26.23;16.13;;;4.50;99.90;;;;;;4915498;29;20362;-69
2022/01/11 09:44:58;;;;;;;38.42;21.48;;;4.50;99.90;;;;;;4909311;29;20210;-70
2022/01/11 09:47:44;;;;;;;44.45;24.80;;;4.60;99.90;;;;;;4914593;29;20759;-70
2022/01/11 09:50:31;;;;;;;51.40;26.50;;;4.70;99.90;;;;;;4915198;29;20303;-70
2022/01/11 09:53:17;;;;;;;50.38;29.08;;;4.70;99.90;;;;;;4904181;29;20987;-70
2022/01/11 09:56:05;;;;;;;45.92;27.35;;;4.70;99.90;;;;;;4911875;29;20726;-73
2022/01/11 09:58:50;;;;;;;48.03;26.63;;;4.60;99.90;;;;;;4909339;29;20302;-72
2022/01/11 10:01:36;;;;;;;39.60;26.33;;;4.70;99.90;;;;;;4917000;29;20210;-72
2022/01/11 10:04:26;;;;;;;42.72;25.85;;;4.70;99.90;;;;;;4909268;29;20206;-71
2022/01/11 10:07:14;;;;;;;41.97;24.55;;;4.70;99.90;;;;;;4916320;29;20229;-71
2022/01/11 10:10:00;;;;;;;46.00;25.38;;;4.80;99.90;;;;;;4914030;29;20229;-71
2022/01/11 10:12:48;;;;;;;41.90;22.55;;;4.90;99.90;;;;;;4918039;29;20201;-71
2022/01/11 10:15:36;;;;;;;37.75;22.88;;;4.90;99.90;;;;;;4912039;29;20202;-71
2022/01/11 10:18:33;;;;;;;37.30;21.40;;;4.90;99.90;;;;;;4911332;29;20214;-71
2022/01/11 10:21:38;;;;;;;135.30;58.15;;;5.00;99.90;;;;;;4916085;29;20205;-72
2022/01/11 10:24:32;;;;;;;86.45;40.33;;;4.90;99.90;;;;;;4918195;29;20222;-71
2022/01/11 10:27:20;;;;;;;33.55;21.73;;;4.80;99.90;;;;;;4918868;29;20314;-71
2022/01/11 10:30:07;;;;;;;49.75;24.58;;;4.80;99.90;;;;;;4910810;29;20226;-71
2022/01/11 10:32:57;;;;;;;43.92;24.42;;;4.90;99.90;;;;;;4908336;29;20213;-72
2022/01/11 10:35:45;;;;;;;46.60;29.13;;;5.00;99.90;;;;;;4906672;29;20226;-71
2022/01/11 10:38:32;;;;;;;41.88;25.98;;;5.10;99.90;;;;;;4908442;29;20208;-71
2022/01/11 10:41:47;;;;;;;42.30;24.90;;;5.20;99.90;;;;;;4902116;29;20782;-72
2022/01/11 10:44:52;;;;;;;35.85;22.20;;;5.20;99.90;;;;;;4910257;29;21053;-71
2022/01/11 10:47:40;;;;;;;40.00;25.75;;;5.30;99.90;;;;;;4904965;29;20342;-72
2022/01/11 10:50:30;;;;;;;31.90;21.48;;;5.40;99.90;;;;;;4914512;29;20723;-72
2022/01/11 10:53:17;;;;;;;34.47;21.33;;;5.40;99.90;;;;;;4909722;29;20231;-71
2022/01/11 10:56:04;;;;;;;34.88;21.90;;;5.50;99.90;;;;;;4912623;29;20242;-73
2022/01/11 10:59:05;;;;;;;31.90;19.77;;;5.50;99.90;;;;;;4907163;29;20233;-71
2022/01/11 11:01:52;;;;;;;38.80;21.65;;;5.60;99.90;;;;;;4913674;29;20212;-71
2022/01/11 11:04:38;;;;;;;39.90;23.52;;;5.70;99.90;;;;;;4915187;29;20206;-71
2022/01/11 11:07:25;;;;;;;37.53;23.60;;;5.80;99.90;;;;;;4907783;29;20229;-71
2022/01/11 11:10:12;;;;;;;34.35;21.52;;;5.80;99.90;;;;;;4917202;29;20204;-71
2022/01/11 11:12:58;;;;;;;38.72;22.38;;;5.90;99.90;;;;;;4912985;29;20214;-72
2022/01/11 11:15:44;;;;;;;35.90;23.17;;;5.90;99.90;;;;;;4915634;29;20273;-73
2022/01/11 11:18:38;;;;;;;29.73;20.88;;;6.00;99.90;;;;;;4909218;29;20209;-73
2022/01/11 11:21:25;;;;;;;34.88;22.05;;;6.00;99.90;;;;;;4913932;29;20201;-72
2022/01/11 11:24:13;;;;;;;31.90;20.63;;;6.00;99.90;;;;;;4911337;29;20233;-72
2022/01/11 11:26:59;;;;;;;36.13;19.77;;;6.00;99.90;;;;;;4914137;29;20274;-72
2022/01/11 11:29:45;;;;;;;30.65;20.17;;;6.00;99.90;;;;;;4914958;29;20214;-72
2022/01/11 11:32:32;;;;;;;37.33;19.23;;;6.00;99.90;;;;;;4913496;29;20363;-72
2022/01/11 11:35:20;;;;;;;27.98;18.48;;;6.10;99.90;;;;;;4916209;29;20679;-72
2022/01/11 11:38:09;;;;;;;30.85;18.27;;;6.10;99.90;;;;;;4911936;29;20318;-72
2022/01/11 11:40:56;;;;;;;25.00;16.80;;;6.20;99.90;;;;;;4914354;29;20198;-72
2022/01/11 11:43:42;;;;;;;58.92;34.22;;;6.20;99.90;;;;;;4912713;29;20309;-72
2022/01/11 11:46:43;;;;;;;32.60;20.47;;;6.20;99.90;;;;;;4912673;29;22084;-72
2022/01/11 11:49:46;;;;;;;21.02;11.50;;;6.30;99.90;;;;;;4910697;29;20429;-72
2022/01/11 11:52:42;;;;;;;16.15;10.32;;;6.40;99.90;;;;;;4913608;29;20265;-72
2022/01/11 11:55:30;;;;;;;19.65;11.98;;;6.40;99.90;;;;;;4914161;29;20206;-72
2022/01/11 11:58:21;;;;;;;18.87;9.43;;;6.50;99.90;;;;;;4913337;29;20719;-71
2022/01/11 12:01:06;;;;;;;12.07;7.18;;;6.50;99.90;;;;;;4911426;29;20449;-72
2022/01/11 12:03:52;;;;;;;11.25;6.65;;;6.50;99.90;;;;;;4911032;29;20358;-74
2022/01/11 12:06:38;;;;;;;14.07;5.35;;;6.50;99.90;;;;;;4913572;29;20707;-71
2022/01/11 12:09:31;;;;;;;10.02;5.88;;;6.60;99.90;;;;;;4912091;29;20807;-71
2022/01/11 12:12:41;;;;;;;10.30;6.05;;;6.50;99.90;;;;;;4915415;29;20619;-72
2022/01/11 12:15:41;;;;;;;11.15;7.20;;;6.50;99.90;;;;;;4905313;29;20207;-71
2022/01/11 12:18:43;;;;;;;8.45;4.90;;;6.60;99.90;;;;;;4913951;29;20736;-71
2022/01/11 12:21:30;;;;;;;9.80;5.50;;;6.70;99.90;;;;;;4914490;29;20212;-71
2022/01/11 12:24:34;;;;;;;9.30;5.43;;;6.70;99.90;;;;;;4914951;29;20217;-71
2022/01/11 12:27:22;;;;;;;8.65;5.47;;;6.70;99.90;;;;;;4912491;29;20557;-71
2022/01/11 12:30:10;;;;;;;10.20;5.93;;;6.80;99.90;;;;;;4914170;29;21497;-71
2022/01/11 12:33:15;;;;;;;14.48;6.22;;;6.80;99.90;;;;;;4911089;29;20811;-74
2022/01/11 12:36:04;;;;;;;11.20;6.00;;;6.90;99.90;;;;;;4909506;29;20222;-73
2022/01/11 12:39:02;;;;;;;9.60;5.77;;;7.00;99.90;;;;;;4913716;29;20206;-72
2022/01/11 12:41:49;;;;;;;9.75;6.03;;;7.00;99.90;;;;;;4909020;29;20449;-72
2022/01/11 12:45:35;;;;;;;13.10;5.47;;;7.00;99.90;;;;;;4912357;29;20229;-71
2022/01/11 12:47:47;;;;;;;9.68;5.90;;;7.00;99.90;;;;;;4913218;29;20229;-71
2022/01/11 12:50:32;;;;;;;9.07;5.43;;;7.10;99.90;;;;;;4913090;29;20282;-70
2022/01/11 12:53:19;;;;;;;8.97;5.60;;;7.20;99.90;;;;;;4913333;29;20832;-69
2022/01/11 12:56:05;;;;;;;8.87;5.23;;;7.20;99.90;;;;;;4910609;29;20644;-72
2022/01/11 12:58:58;;;;;;;9.45;5.38;;;7.30;99.90;;;;;;4910612;29;20442;-68
2022/01/11 13:01:43;;;;;;;7.30;5.53;;;7.40;99.90;;;;;;4906737;29;20691;-68
2022/01/11 13:04:51;;;;;;;8.07;5.60;;;7.50;99.90;;;;;;4909638;29;20943;-69
2022/01/11 13:07:39;;;;;;;9.93;5.03;;;7.50;99.90;;;;;;4911374;29;20954;-70
2022/01/11 13:10:26;;;;;;;11.98;5.45;;;8.10;99.90;;;;;;4913442;29;20457;-68
2022/01/11 13:13:15;;;;;;;7.93;4.88;;;8.20;99.90;;;;;;4912170;29;20209;-69
2022/01/11 13:16:01;;;;;;;8.52;4.97;;;8.10;99.90;;;;;;4908329;29;20736;-68
2022/01/11 13:18:47;;;;;;;9.07;5.00;;;7.90;99.90;;;;;;4911192;29;20216;-68
2022/01/11 13:21:34;;;;;;;10.63;4.70;;;7.60;99.90;;;;;;4899737;29;20433;-69
2022/01/11 13:24:35;;;;;;;6.57;4.23;;;7.50;99.90;;;;;;4906956;29;20462;-70
2022/01/11 13:27:21;;;;;;;12.30;5.57;;;7.30;99.90;;;;;;4906050;29;21061;-71
2022/01/11 13:30:07;;;;;;;8.90;5.37;;;7.20;99.90;;;;;;4909157;29;20217;-70
2022/01/11 13:32:53;;;;;;;5.63;4.80;;;7.10;99.90;;;;;;4894977;29;20417;-70
2022/01/11 13:35:39;;;;;;;6.50;4.83;;;7.20;99.90;;;;;;4906493;29;20867;-73
2022/01/11 13:38:29;;;;;;;5.75;3.80;;;7.30;99.90;;;;;;4903225;29;20413;-72
2022/01/11 13:41:16;;;;;;;6.50;4.10;;;7.60;99.90;;;;;;4896515;29;20685;-72
2022/01/11 13:44:05;;;;;;;9.70;3.43;;;7.80;99.90;;;;;;4901125;29;21023;-73
2022/01/11 13:46:53;;;;;;;4.80;3.30;;;7.80;99.90;;;;;;4900704;29;20470;-72
2022/01/11 13:49:40;;;;;;;5.07;3.00;;;7.70;99.90;;;;;;4907952;29;20514;-72
2022/01/11 13:52:27;;;;;;;5.78;3.30;;;7.50;99.90;;;;;;4914477;29;20428;-71
2022/01/11 13:55:14;;;;;;;5.05;3.45;;;7.40;99.90;;;;;;4912709;29;20213;-72
2022/01/11 13:58:00;;;;;;;5.23;3.10;;;7.20;99.90;;;;;;4908015;29;20277;-73
2022/01/11 14:00:46;;;;;;;4.60;3.10;;;7.10;99.90;;;;;;4911580;29;20456;-73
2022/01/11 14:03:32;;;;;;;4.20;2.90;;;7.10;99.90;;;;;;4900409;29;20991;-73
2022/01/11 14:06:20;;;;;;;4.93;2.63;;;7.00;99.90;;;;;;4909504;29;20979;-73
2022/01/11 14:09:10;;;;;;;6.07;2.58;;;6.90;99.90;;;;;;4913943;29;20525;-72
2022/01/11 14:12:09;;;;;;;5.22;2.20;;;6.90;99.90;;;;;;4914192;29;20264;-72
2022/01/11 14:14:57;;;;;;;3.93;2.17;;;6.80;99.90;;;;;;4913126;29;20198;-72
2022/01/11 14:17:44;;;;;;;7.60;2.50;;;6.70;99.90;;;;;;4913908;29;20485;-73
2022/01/11 14:20:32;;;;;;;2.87;2.20;;;6.70;99.90;;;;;;4909334;29;20430;-72
2022/01/11 14:23:18;;;;;;;3.03;2.23;;;6.70;99.90;;;;;;4908470;29;20440;-74
2022/01/11 14:26:05;;;;;;;4.67;2.83;;;6.60;99.90;;;;;;4905114;29;20485;-72
2022/01/11 14:28:52;;;;;;;4.80;3.00;;;6.60;99.90;;;;;;4905243;29;20412;-73